Weather History for KBDH - April, 2014

Change the Weather History Date:

Tuesday, April 29, 2014

  Actual Average (KLJF) Record (KLJF)
Temperature  
Mean Temperature 42 °F -  
Max Temperature 48 °F 63 °F 84 °F (1965)
Min Temperature 37 °F 40 °F 19 °F (1958)
Degree Days  
Heating Degree Days 22    
Moisture  
Dew Point 34 °F    
Average Humidity 75    
Maximum Humidity 93    
Minimum Humidity 50    
Precipitation  
Precipitation 0.00 in - - ()
Sea Level Pressure  
Sea Level Pressure 29.76 in    
Wind  
Wind Speed 19 mph (NNE)    
Max Wind Speed 29 mph    
Max Gust Speed 41 mph    
Visibility 10 miles    
Events Rain    
Averages and records for this station are not official NWS values.
T = Trace of Precipitation, MM = Missing Value Source: NWS Daily Summary

Daily Weather History Graph

Daily Weather History Graph

Search for Another Location

Airport or City:

Trip Planner

Search our weather history database for the weather conditions in past years. The results will help you decide how hot, cold, wet, or windy it might be!

Date:

Astronomy

Apr. 29, 2014 Rise Set
Actual Time 6:12 AM CDT 8:23 PM CDT
Civil Twilight 5:40 AM CDT 8:56 PM CDT
Nautical Twilight 5:00 AM CDT 9:36 PM CDT
Astronomical Twilight 4:16 AM CDT 10:20 PM CDT
Moon 6:31 AM CDT (4/29) 9:05 PM CDT (4/29)
Length of Visible Light 15h 15m
Length of Day
14h 11m
New Moon, 0% of the Moon is Illuminated
Apr 29
New Moon
May 6
First Quarter
May 14
Full
May 21
Last Quarter
May 28
New

Hourly Weather History & Observations

Time (CDT) Temp. Windchill Dew Point Humidity Pressure Visibility Wind Dir Wind Speed Gust Speed Precip Events Conditions
12:15 AM 41.0 °F 32.8 °F 35.6 °F 81% 29.70 in 10.0 mi ENE 16.1 mph 25.3 mph N/A   Overcast
12:36 AM 41.0 °F 32.5 °F 35.6 °F 81% 29.70 in 10.0 mi NE 17.3 mph 26.5 mph N/A   Overcast
12:55 AM 41.0 °F 31.6 °F 35.6 °F 81% 29.70 in 10.0 mi ENE 20.7 mph 26.5 mph N/A   Overcast
1:15 AM 41.0 °F 32.5 °F 33.8 °F 76% 29.70 in 10.0 mi NE 17.3 mph 21.9 mph N/A   Overcast
1:36 AM 41.0 °F 31.9 °F 33.8 °F 76% 29.69 in 10.0 mi NE 19.6 mph 24.2 mph N/A   Overcast
1:55 AM 41.0 °F 32.2 °F 33.8 °F 76% 29.69 in 10.0 mi ENE 18.4 mph 27.6 mph N/A   Overcast
2:15 AM 41.0 °F 33.5 °F 33.8 °F 76% 29.69 in 10.0 mi NE 13.8 mph 19.6 mph N/A   Overcast
2:36 AM 39.2 °F 30.2 °F 33.8 °F 81% 29.69 in 10.0 mi NE 17.3 mph 25.3 mph N/A   Overcast
2:56 AM 39.2 °F 30.5 °F 33.8 °F 81% 29.69 in 10.0 mi NE 16.1 mph 21.9 mph N/A   Overcast
3:15 AM 39.2 °F 29.8 °F 33.8 °F 81% 29.69 in 10.0 mi NE 18.4 mph 26.5 mph N/A   Overcast
3:36 AM 39.2 °F 29.3 °F 33.8 °F 81% 29.69 in 10.0 mi NE 20.7 mph 27.6 mph N/A   Overcast
3:55 AM 39.2 °F 30.8 °F 33.8 °F 81% 29.70 in 5.0 mi NE 15.0 mph 24.2 mph N/A   Haze
4:15 AM 39.2 °F 31.2 °F 35.6 °F 87% 29.70 in 4.0 mi NE 13.8 mph 21.9 mph N/A   Overcast
4:35 AM 37.4 °F 28.5 °F 35.6 °F 93% 29.70 in 5.0 mi NE 15.0 mph 24.2 mph N/A   Overcast
4:56 AM 37.4 °F 28.5 °F 35.6 °F 93% 29.70 in 4.0 mi NE 15.0 mph - N/A   Overcast
5:15 AM 37.4 °F 28.2 °F 35.6 °F 93% 29.70 in 5.0 mi NE 16.1 mph 23.0 mph N/A Rain Rain
5:35 AM 37.4 °F 27.8 °F 35.6 °F 93% 29.70 in 5.0 mi NE 17.3 mph 21.9 mph N/A Rain Rain
5:56 AM 39.2 °F 30.8 °F 33.8 °F 81% 29.70 in 10.0 mi NE 15.0 mph 20.7 mph N/A Rain Light Rain
6:15 AM 39.2 °F 29.8 °F 33.8 °F 81% 29.70 in 10.0 mi NE 18.4 mph 29.9 mph N/A   Light Drizzle
6:35 AM 39.2 °F 29.8 °F 33.8 °F 81% 29.71 in 10.0 mi NE 18.4 mph 25.3 mph N/A   Light Drizzle
6:56 AM 37.4 °F 27.5 °F 33.8 °F 87% 29.71 in 10.0 mi NE 18.4 mph 29.9 mph N/A   Light Drizzle
7:15 AM 37.4 °F 28.5 °F 33.8 °F 87% 29.72 in 7.0 mi NE 15.0 mph 26.5 mph N/A Rain Light Rain
7:35 AM 37.4 °F 27.8 °F 33.8 °F 87% 29.72 in 10.0 mi NE 17.3 mph 27.6 mph N/A Rain Light Rain
7:56 AM 37.4 °F 27.5 °F 33.8 °F 87% 29.73 in 10.0 mi NE 18.4 mph 25.3 mph N/A   Overcast
8:15 AM 39.2 °F 29.6 °F 33.8 °F 81% 29.73 in 10.0 mi NE 19.6 mph 29.9 mph N/A   Overcast
8:35 AM 39.2 °F 29.0 °F 32.0 °F 75% 29.73 in 10.0 mi NE 21.9 mph 31.1 mph N/A   Mostly Cloudy
8:56 AM 39.2 °F 29.8 °F 32.0 °F 75% 29.74 in 10.0 mi NE 18.4 mph 28.8 mph N/A   Scattered Clouds
9:15 AM 39.2 °F 29.8 °F 32.0 °F 75% 29.74 in 10.0 mi NE 18.4 mph 28.8 mph N/A   Scattered Clouds
9:35 AM 39.2 °F 29.0 °F 32.0 °F 75% 29.74 in 10.0 mi NNE 21.9 mph 28.8 mph N/A   Light Drizzle
9:56 AM 39.2 °F 29.0 °F 33.8 °F 81% 29.74 in 10.0 mi NE 21.9 mph 29.9 mph N/A   Scattered Clouds
10:15 AM 39.2 °F 28.5 °F 33.8 °F 81% 29.75 in 10.0 mi NNE 24.2 mph 27.6 mph N/A Rain Light Rain
10:36 AM 39.2 °F 28.5 °F 32.0 °F 75% 29.75 in 10.0 mi NE 24.2 mph 29.9 mph N/A   Scattered Clouds
10:55 AM 39.2 °F 30.2 °F 33.8 °F 81% 29.75 in 10.0 mi NE 17.3 mph 29.9 mph N/A   Light Drizzle
11:15 AM 39.2 °F 30.2 °F 33.8 °F 81% 29.75 in 10.0 mi NNE 17.3 mph 25.3 mph N/A   Light Drizzle
11:35 AM 39.2 °F 28.7 °F 33.8 °F 81% 29.75 in 10.0 mi NNE 23.0 mph 27.6 mph N/A   Light Drizzle
11:55 AM 41.0 °F 30.7 °F 33.8 °F 76% 29.75 in 10.0 mi NE 25.3 mph 34.5 mph N/A   Light Drizzle
12:15 PM 42.8 °F 33.3 °F 33.8 °F 70% 29.76 in 10.0 mi NE 24.2 mph 33.4 mph N/A   Clear
12:36 PM 42.8 °F 33.5 °F 32.0 °F 66% 29.75 in 10.0 mi NE 23.0 mph 34.5 mph N/A   Light Drizzle
12:55 PM 42.8 °F 33.3 °F 33.8 °F 70% 29.75 in 10.0 mi NNE 24.2 mph 31.1 mph N/A   Scattered Clouds
1:15 PM 42.8 °F 33.3 °F 32.0 °F 66% 29.75 in 10.0 mi NNE 24.2 mph 34.5 mph N/A   Scattered Clouds
1:36 PM 42.8 °F 32.5 °F 30.2 °F 61% 29.75 in 10.0 mi NNE 28.8 mph 39.1 mph N/A   Scattered Clouds
1:55 PM 42.8 °F 32.9 °F 33.8 °F 70% 29.75 in 10.0 mi NE 26.5 mph 34.5 mph N/A   Scattered Clouds
2:15 PM 42.8 °F 33.1 °F 33.8 °F 70% 29.76 in 10.0 mi NE 25.3 mph 36.8 mph N/A   Scattered Clouds
2:36 PM 42.8 °F 34.8 °F 33.8 °F 70% 29.76 in 10.0 mi NNE 17.3 mph 23.0 mph N/A   Scattered Clouds
2:55 PM 44.6 °F 37.8 °F 33.8 °F 66% 29.76 in 10.0 mi NNE 15.0 mph - N/A   Scattered Clouds
3:15 PM 44.6 °F 36.1 °F 33.8 °F 66% 29.76 in 10.0 mi NNE 21.9 mph 31.1 mph N/A   Scattered Clouds
3:36 PM 44.6 °F 35.3 °F 32.0 °F 61% 29.77 in 10.0 mi NNE 26.5 mph 35.7 mph N/A   Scattered Clouds
4:15 PM 46.4 °F 37.7 °F 30.2 °F 53% 29.77 in 10.0 mi NNE 26.5 mph 34.5 mph N/A   Clear
4:36 PM 46.4 °F 38.5 °F 30.2 °F 53% 29.77 in 10.0 mi NNE 21.9 mph 34.5 mph N/A   Clear
4:55 PM 46.4 °F 37.5 °F 30.2 °F 53% 29.78 in 10.0 mi NNE 27.6 mph 41.4 mph N/A   Clear
5:15 PM 48.2 °F - 30.2 °F 50% 29.78 in 10.0 mi NNE 23.0 mph 32.2 mph N/A   Scattered Clouds
5:36 PM 46.4 °F 38.1 °F 32.0 °F 57% 29.79 in 10.0 mi NNE 24.2 mph 29.9 mph N/A   Scattered Clouds
5:55 PM 46.4 °F 38.5 °F 32.0 °F 57% 29.81 in 10.0 mi NNE 21.9 mph 34.5 mph N/A   Clear
6:15 PM 46.4 °F 38.5 °F 33.8 °F 62% 29.81 in 10.0 mi North 21.9 mph 29.9 mph N/A   Scattered Clouds
6:36 PM 46.4 °F 38.5 °F 33.8 °F 62% 29.82 in 10.0 mi North 21.9 mph 31.1 mph N/A   Scattered Clouds
6:55 PM 46.4 °F 39.2 °F 33.8 °F 62% 29.82 in 10.0 mi NNE 18.4 mph 28.8 mph N/A   Scattered Clouds
7:15 PM 46.4 °F 39.2 °F 33.8 °F 62% 29.83 in 10.0 mi NNE 18.4 mph 24.2 mph N/A   Scattered Clouds
7:36 PM 44.6 °F 36.9 °F 33.8 °F 66% 29.83 in 10.0 mi NNE 18.4 mph 33.4 mph N/A   Scattered Clouds
7:55 PM 44.6 °F 36.6 °F 33.8 °F 66% 29.84 in 10.0 mi NNE 19.6 mph 25.3 mph N/A   Scattered Clouds
8:15 PM 44.6 °F 36.9 °F 33.8 °F 66% 29.84 in 10.0 mi NNE 18.4 mph 26.5 mph N/A   Mostly Cloudy
8:36 PM 44.6 °F 37.2 °F 35.6 °F 71% 29.85 in 10.0 mi NNE 17.3 mph 23.0 mph N/A   Mostly Cloudy
8:55 PM 41.0 °F 33.5 °F 35.6 °F 81% 29.85 in 7.0 mi NNE 13.8 mph 28.8 mph N/A Rain Light Rain
9:15 PM 42.8 °F 35.8 °F 35.6 °F 76% 29.85 in 10.0 mi NNE 13.8 mph - N/A   Clear
9:36 PM 42.8 °F 36.2 °F 35.6 °F 76% 29.85 in 10.0 mi North 12.7 mph - N/A   Clear
9:55 PM 42.8 °F 34.8 °F 35.6 °F 76% 29.85 in 10.0 mi North 17.3 mph 24.2 mph N/A   Drizzle
10:15 PM 42.8 °F 34.3 °F 35.6 °F 76% 29.85 in 10.0 mi North 19.6 mph 28.8 mph N/A Rain Light Rain
10:35 PM 42.8 °F 36.2 °F 35.6 °F 76% 29.85 in 10.0 mi North 12.7 mph - N/A Rain Light Rain
10:55 PM 42.8 °F 36.2 °F 35.6 °F 76% 29.84 in 10.0 mi North 12.7 mph - N/A   Light Drizzle
11:16 PM 42.8 °F 35.1 °F 35.6 °F 76% 29.84 in 10.0 mi North 16.1 mph 21.9 mph N/A   Scattered Clouds
11:35 PM 41.0 °F 33.9 °F 35.6 °F 81% 29.84 in 10.0 mi North 12.7 mph 19.6 mph N/A   Scattered Clouds
11:55 PM 41.0 °F 32.8 °F 35.6 °F 81% 29.84 in 10.0 mi North 16.1 mph 23.0 mph N/A   Scattered Clouds